createdAt,value
2022-09-12T00:01:11.428Z,12.73
2022-09-12T00:03:40.692Z,12.82
2022-09-12T00:06:11.090Z,12.92
2022-09-12T00:08:39.793Z,12.72
2022-09-12T00:11:09.968Z,12.67
2022-09-12T00:13:41.979Z,12.54
2022-09-12T00:16:16.266Z,12.67
2022-09-12T00:18:46.096Z,12.62
2022-09-12T00:21:14.790Z,12.41
2022-09-12T00:23:42.857Z,12.34
2022-09-12T00:26:11.321Z,12.35
2022-09-12T00:28:41.881Z,12.37
2022-09-12T00:31:12.028Z,12.29
2022-09-12T00:33:40.790Z,12.44
2022-09-12T00:36:11.361Z,12.32
2022-09-12T00:38:42.208Z,12.32
2022-09-12T00:41:16.470Z,12.49
2022-09-12T00:43:48.262Z,12.37
2022-09-12T00:46:27.617Z,11.88
2022-09-12T00:49:01.086Z,11.84
2022-09-12T00:51:33.310Z,11.97
2022-09-12T00:54:04.153Z,12.12
2022-09-12T00:56:32.670Z,11.89
2022-09-12T00:59:06.343Z,11.91
2022-09-12T01:01:35.150Z,11.68
2022-09-12T01:04:03.966Z,11.99
2022-09-12T01:06:37.664Z,11.86
2022-09-12T01:09:06.476Z,11.72
2022-09-12T01:11:38.309Z,11.75
2022-09-12T01:14:08.615Z,11.57
2022-09-12T01:16:38.073Z,11.50
2022-09-12T01:19:28.240Z,11.63
2022-09-12T01:22:12.088Z,11.34
2022-09-12T01:24:55.827Z,11.40
2022-09-12T01:27:48.163Z,11.58
2022-09-12T01:30:49.366Z,11.48
2022-09-12T01:33:46.569Z,11.61
2022-09-12T01:36:34.620Z,11.57
2022-09-12T01:39:05.460Z,11.58
2022-09-12T01:41:45.960Z,11.57
2022-09-12T01:44:24.352Z,11.50
2022-09-12T01:46:59.336Z,11.56
2022-09-12T01:49:34.246Z,11.48
2022-09-12T01:52:07.459Z,11.40
2022-09-12T01:54:40.004Z,11.45
2022-09-12T01:57:15.052Z,11.57
2022-09-12T01:59:48.803Z,11.57
2022-09-12T02:02:19.379Z,11.60
2022-09-12T02:04:52.871Z,11.52
2022-09-12T02:07:22.636Z,11.40
2022-09-12T02:09:55.486Z,11.44
2022-09-12T02:12:29.159Z,11.43
2022-09-12T02:15:01.224Z,11.37
2022-09-12T02:17:33.742Z,11.53
2022-09-12T02:20:07.576Z,11.39
2022-09-12T02:22:37.031Z,11.12
2022-09-12T02:25:08.738Z,10.97
2022-09-12T02:27:41.444Z,10.97
2022-09-12T02:30:10.993Z,10.99
2022-09-12T02:32:45.000Z,10.72
2022-09-12T02:35:23.808Z,10.82
2022-09-12T02:37:59.737Z,10.93
2022-09-12T02:40:27.925Z,11.01
2022-09-12T02:42:56.406Z,11.07
2022-09-12T02:45:24.685Z,11.06
2022-09-12T02:47:59.693Z,11.13
2022-09-12T02:50:28.113Z,11.06
2022-09-12T02:52:59.926Z,11.06
2022-09-12T02:55:28.174Z,10.99
2022-09-12T02:57:56.187Z,11.04
2022-09-12T03:00:25.656Z,11.13
2022-09-12T03:03:14.889Z,11.02
2022-09-12T03:05:48.689Z,11.00
2022-09-12T03:08:23.087Z,10.95
2022-09-12T03:11:11.241Z,10.83
2022-09-12T03:13:51.831Z,10.83
2022-09-12T03:16:29.683Z,10.90
2022-09-12T03:19:04.516Z,11.01
2022-09-12T03:21:37.964Z,11.10
2022-09-12T03:24:14.401Z,11.13
2022-09-12T03:26:49.432Z,11.08
2022-09-12T03:29:19.277Z,10.95
2022-09-12T03:31:52.384Z,10.95
2022-09-12T03:34:24.531Z,11.04
2022-09-12T03:36:53.070Z,10.91
2022-09-12T03:39:21.139Z,11.09
2022-09-12T03:41:49.139Z,11.12
2022-09-12T03:44:17.386Z,11.17
2022-09-12T03:46:45.616Z,11.21
2022-09-12T03:49:13.787Z,11.09
2022-09-12T03:51:43.671Z,10.98
2022-09-12T03:54:12.395Z,10.74
2022-09-12T03:56:41.694Z,10.65
2022-09-12T03:59:09.766Z,10.85
2022-09-12T04:01:38.649Z,10.79
2022-09-12T04:04:06.652Z,10.65
2022-09-12T04:06:34.641Z,10.65
2022-09-12T04:09:04.689Z,10.65
2022-09-12T04:11:32.801Z,10.45
2022-09-12T04:14:00.800Z,10.33
2022-09-12T04:16:28.853Z,10.24
2022-09-12T04:18:56.850Z,10.24
2022-09-12T04:21:24.909Z,10.27
2022-09-12T04:23:53.238Z,10.27
2022-09-12T04:26:22.985Z,10.33
2022-09-12T04:28:56.318Z,10.39
2022-09-12T04:31:25.000Z,10.46
2022-09-12T04:33:56.074Z,10.34
2022-09-12T04:36:24.244Z,10.39
2022-09-12T04:38:52.877Z,10.38
2022-09-12T04:41:24.091Z,10.38
2022-09-12T04:43:54.352Z,10.41
2022-09-12T04:46:22.554Z,10.40
2022-09-12T04:48:55.900Z,10.38
2022-09-12T04:51:28.001Z,10.20
2022-09-12T04:53:58.228Z,9.95
2022-09-12T04:56:28.482Z,9.92
2022-09-12T04:58:58.864Z,9.93
2022-09-12T05:01:28.214Z,9.92
2022-09-12T05:03:57.381Z,10.08
2022-09-12T05:06:27.092Z,10.02
2022-09-12T05:08:56.064Z,9.98
2022-09-12T05:11:36.738Z,10.34
2022-09-12T05:14:11.315Z,10.57
2022-09-12T05:16:39.461Z,10.36
2022-09-12T05:19:07.769Z,10.32
2022-09-12T05:21:35.765Z,10.36
2022-09-12T05:24:06.270Z,10.49
2022-09-12T05:26:34.395Z,10.39
2022-09-12T05:29:02.400Z,10.19
2022-09-12T05:31:31.825Z,10.35
2022-09-12T05:33:59.785Z,10.56
2022-09-12T05:36:29.966Z,10.48
2022-09-12T05:38:58.388Z,10.70
2022-09-12T05:41:27.717Z,10.69
2022-09-12T05:43:57.147Z,10.65
2022-09-12T05:46:27.341Z,10.67
2022-09-12T05:48:57.390Z,10.63
2022-09-12T05:51:26.976Z,10.69
2022-09-12T05:53:56.959Z,10.68
2022-09-12T05:56:26.530Z,10.61
2022-09-12T05:58:56.263Z,10.76
2022-09-12T06:01:25.260Z,10.81
2022-09-12T06:03:55.377Z,10.87
2022-09-12T06:06:26.505Z,10.99
2022-09-12T06:08:57.931Z,11.05
2022-09-12T06:11:28.716Z,11.13
2022-09-12T06:13:58.134Z,11.18
2022-09-12T06:16:28.390Z,11.29
2022-09-12T06:18:57.970Z,11.40
2022-09-12T06:21:28.483Z,11.44
2022-09-12T06:23:58.716Z,11.44
2022-09-12T06:26:27.546Z,11.54
2022-09-12T06:28:57.218Z,11.57
2022-09-12T06:31:26.931Z,11.46
2022-09-12T06:33:59.755Z,11.74
2022-09-12T06:36:31.727Z,11.59
2022-09-12T06:39:01.999Z,11.95
2022-09-12T06:41:31.262Z,11.91
2022-09-12T06:44:00.323Z,11.88
2022-09-12T06:46:29.253Z,12.03
2022-09-12T06:48:57.706Z,12.02
2022-09-12T06:51:26.370Z,12.17
2022-09-12T06:53:57.013Z,11.85
2022-09-12T06:56:26.531Z,12.13
2022-09-12T06:58:56.908Z,12.14
2022-09-12T07:01:26.615Z,12.23
2022-09-12T07:03:56.878Z,12.18
2022-09-12T07:06:29.868Z,12.29
2022-09-12T07:09:00.494Z,12.29
2022-09-12T07:11:31.907Z,12.73
2022-09-12T07:14:01.552Z,12.67
2022-09-12T07:16:30.330Z,12.78
2022-09-12T07:19:01.458Z,12.85
2022-09-12T07:21:30.604Z,13.08
2022-09-12T07:24:00.092Z,13.29
2022-09-12T07:26:29.291Z,13.23
2022-09-12T07:29:18.725Z,13.37
2022-09-12T07:31:47.298Z,13.64
2022-09-12T07:34:15.352Z,13.76
2022-09-12T07:36:43.381Z,14.10
2022-09-12T07:39:12.781Z,14.32
2022-09-12T07:41:40.797Z,14.15
2022-09-12T07:44:08.900Z,14.39
2022-09-12T07:46:36.884Z,14.42
2022-09-12T07:49:04.979Z,14.54
2022-09-12T07:51:33.143Z,14.52
2022-09-12T07:54:01.357Z,14.75
2022-09-12T07:56:34.624Z,14.94
2022-09-12T07:59:05.138Z,15.10
2022-09-12T08:01:33.390Z,15.45
2022-09-12T08:04:01.756Z,15.58
2022-09-12T08:06:33.869Z,15.62
2022-09-12T08:09:01.969Z,15.62
2022-09-12T08:11:31.552Z,15.80
2022-09-12T08:14:00.184Z,15.94
2022-09-12T08:16:31.285Z,16.00
2022-09-12T08:18:59.388Z,15.94
2022-09-12T08:21:29.464Z,16.07
2022-09-12T08:23:59.374Z,16.20
2022-09-12T08:26:29.022Z,16.33
2022-09-12T08:28:58.706Z,16.54
2022-09-12T08:31:28.630Z,16.61
2022-09-12T08:33:57.520Z,16.71
2022-09-12T08:36:27.788Z,16.88
2022-09-12T08:39:00.044Z,17.15
2022-09-12T08:41:32.967Z,17.12
2022-09-12T08:44:18.500Z,17.17
2022-09-12T08:46:53.287Z,17.11
2022-09-12T08:49:28.546Z,17.16
2022-09-12T08:51:59.338Z,17.36
2022-09-12T08:54:30.302Z,17.54
2022-09-12T08:57:03.302Z,17.91
2022-09-12T08:59:39.295Z,17.94
2022-09-12T09:02:29.803Z,18.06
2022-09-12T09:05:11.981Z,18.20
2022-09-12T09:08:11.512Z,18.26
2022-09-12T09:10:50.438Z,18.10
2022-09-12T09:13:47.317Z,18.27
2022-09-12T09:16:26.405Z,18.42
2022-09-12T09:18:56.922Z,18.75
2022-09-12T09:21:29.494Z,19.12
2022-09-12T09:24:05.213Z,18.99
2022-09-12T09:26:43.082Z,19.31
2022-09-12T09:29:19.502Z,19.47
2022-09-12T09:31:53.136Z,19.71
2022-09-12T09:34:22.339Z,19.36
2022-09-12T09:36:58.301Z,19.26
2022-09-12T09:39:37.701Z,19.80
2022-09-12T09:42:24.933Z,20.02
2022-09-12T09:44:56.102Z,20.38
2022-09-12T09:47:25.558Z,20.03
2022-09-12T09:49:53.630Z,20.35
2022-09-12T09:52:28.624Z,20.39
2022-09-12T09:54:59.090Z,19.93
2022-09-12T09:57:41.177Z,20.22
2022-09-12T10:00:30.738Z,20.39
2022-09-12T10:03:27.542Z,20.74
2022-09-12T10:05:58.861Z,20.78
2022-09-12T10:08:28.783Z,20.99
2022-09-12T10:11:08.114Z,21.13
2022-09-12T10:13:40.670Z,20.62
2022-09-12T10:16:20.165Z,21.11
2022-09-12T10:18:52.623Z,21.49
2022-09-12T10:21:30.318Z,21.33
2022-09-12T10:24:06.307Z,21.29
2022-09-12T10:26:38.847Z,21.46
2022-09-12T10:29:20.045Z,21.57
2022-09-12T10:31:52.470Z,21.87
2022-09-12T10:34:27.956Z,21.60
2022-09-12T10:37:01.820Z,20.88
2022-09-12T10:39:31.193Z,21.62
2022-09-12T10:41:59.342Z,21.29
2022-09-12T10:44:29.722Z,21.50
2022-09-12T10:46:59.175Z,21.89
2022-09-12T10:49:31.305Z,21.94
2022-09-12T10:52:17.935Z,21.54
2022-09-12T10:54:46.659Z,22.03
2022-09-12T10:57:43.119Z,22.49
2022-09-12T11:00:17.890Z,22.42
2022-09-12T11:02:52.704Z,22.55
2022-09-12T11:05:46.351Z,22.52
2022-09-12T11:08:42.357Z,21.99
2022-09-12T11:11:25.346Z,22.51
2022-09-12T11:14:11.032Z,22.86
2022-09-12T11:16:50.220Z,23.21
2022-09-12T11:19:35.121Z,22.88
2022-09-12T11:22:18.396Z,23.28
2022-09-12T11:25:15.082Z,23.29
2022-09-12T11:27:59.509Z,23.41
2022-09-12T11:30:31.957Z,23.24
2022-09-12T11:33:26.173Z,23.36
2022-09-12T11:35:57.461Z,23.45
2022-09-12T11:38:47.401Z,23.48
2022-09-12T11:41:21.138Z,23.62
2022-09-12T11:43:54.042Z,23.76
2022-09-12T11:46:26.222Z,23.48
2022-09-12T11:48:59.755Z,23.63
2022-09-12T11:51:29.277Z,23.51
2022-09-12T11:54:13.248Z,23.38
2022-09-12T11:56:46.113Z,23.46
2022-09-12T11:59:24.924Z,23.32
2022-09-12T12:02:00.208Z,23.43
2022-09-12T12:04:39.091Z,23.42
2022-09-12T12:07:09.452Z,23.60
2022-09-12T12:09:47.632Z,23.74
2022-09-12T12:12:20.508Z,23.86
2022-09-12T12:14:52.241Z,23.61
2022-09-12T12:17:22.600Z,23.39
2022-09-12T12:20:06.529Z,23.90
2022-09-12T12:22:36.501Z,24.02
2022-09-12T12:25:29.609Z,24.02
2022-09-12T12:28:01.939Z,23.94
2022-09-12T12:31:02.140Z,24.12
2022-09-12T12:34:03.436Z,24.04
2022-09-12T12:36:40.517Z,24.11
2022-09-12T12:39:45.011Z,24.35
2022-09-12T12:43:05.059Z,24.58
2022-09-12T12:46:04.845Z,24.82
2022-09-12T12:48:37.360Z,24.92
2022-09-12T12:51:38.049Z,24.77
2022-09-12T12:54:20.592Z,24.86
2022-09-12T12:56:48.711Z,25.07
2022-09-12T12:59:23.180Z,25.10
2022-09-12T13:01:55.521Z,25.01
2022-09-12T13:04:26.511Z,25.31
2022-09-12T13:07:07.683Z,24.92
2022-09-12T13:09:45.035Z,25.03
2022-09-12T13:12:20.552Z,25.41
2022-09-12T13:14:56.207Z,25.82
2022-09-12T13:17:28.821Z,25.72
2022-09-12T13:20:26.651Z,26.06
2022-09-12T13:22:54.851Z,25.99
2022-09-12T13:25:29.846Z,26.35
2022-09-12T13:27:59.882Z,26.20
2022-09-12T13:30:30.313Z,26.08
2022-09-12T13:33:00.429Z,26.14
2022-09-12T13:35:38.827Z,25.96
2022-09-12T13:38:17.176Z,26.03
2022-09-12T13:41:02.279Z,25.97
2022-09-12T13:43:39.108Z,26.00
2022-09-12T13:46:11.114Z,26.08
2022-09-12T13:48:41.189Z,25.92
2022-09-12T13:51:16.951Z,25.98
2022-09-12T13:53:48.197Z,25.82
2022-09-12T13:56:18.856Z,26.12
2022-09-12T13:58:55.647Z,26.14
2022-09-12T14:01:26.654Z,26.32
2022-09-12T14:04:13.213Z,25.99
2022-09-12T14:06:49.703Z,26.48
2022-09-12T14:09:25.380Z,26.04
2022-09-12T14:11:54.288Z,26.03
2022-09-12T14:14:29.447Z,25.95
2022-09-12T14:16:59.128Z,26.78
2022-09-12T14:19:29.375Z,26.69
2022-09-12T14:21:58.453Z,26.65
2022-09-12T14:24:26.926Z,26.62
2022-09-12T14:26:57.091Z,26.54
2022-09-12T14:29:26.413Z,26.57
2022-09-12T14:32:07.129Z,26.65
2022-09-12T14:34:35.152Z,26.72
2022-09-12T14:37:07.760Z,26.76
2022-09-12T14:39:41.595Z,26.71
2022-09-12T14:42:17.688Z,26.96
2022-09-12T14:44:56.158Z,26.97
2022-09-12T14:47:29.390Z,26.82
2022-09-12T14:49:57.448Z,26.81
2022-09-12T14:52:28.916Z,26.72
2022-09-12T14:54:58.658Z,26.88
2022-09-12T14:57:36.582Z,26.77
2022-09-12T15:00:20.991Z,26.81
2022-09-12T15:02:51.253Z,26.83
2022-09-12T15:05:25.924Z,26.93
2022-09-12T15:08:00.314Z,26.75
2022-09-12T15:10:32.488Z,26.75
2022-09-12T15:13:21.345Z,26.72
2022-09-12T15:15:52.020Z,26.50
2022-09-12T15:18:22.338Z,26.70
2022-09-12T15:20:52.971Z,26.88
2022-09-12T15:23:43.779Z,26.67
2022-09-12T15:26:14.118Z,26.80
2022-09-12T15:28:42.374Z,26.78
2022-09-12T15:31:18.699Z,26.86
2022-09-12T15:33:48.328Z,26.97
2022-09-12T15:36:18.835Z,26.88
2022-09-12T15:38:47.796Z,26.78
2022-09-12T15:41:18.485Z,26.76
2022-09-12T15:43:46.831Z,26.74
2022-09-12T15:46:18.072Z,26.75
2022-09-12T15:48:56.659Z,26.80
2022-09-12T15:51:28.907Z,26.78
2022-09-12T15:53:57.806Z,26.82
2022-09-12T15:56:28.481Z,26.92
2022-09-12T15:58:59.798Z,26.90
2022-09-12T16:01:34.712Z,26.86
2022-09-12T16:04:05.062Z,26.83
2022-09-12T16:06:37.387Z,26.84
2022-09-12T16:09:08.647Z,26.59
2022-09-12T16:11:38.065Z,26.69
2022-09-12T16:14:08.750Z,26.75
2022-09-12T16:16:36.920Z,26.77
2022-09-12T16:19:06.414Z,26.60
2022-09-12T16:21:34.427Z,26.51
2022-09-12T16:24:02.431Z,26.51
2022-09-12T16:26:30.521Z,26.46
2022-09-12T16:28:59.217Z,26.28
2022-09-12T16:31:29.099Z,26.13
2022-09-12T16:33:57.141Z,25.85
2022-09-12T16:36:26.557Z,25.55
2022-09-12T16:38:55.821Z,25.57
2022-09-12T16:41:26.477Z,25.35
2022-09-12T16:43:55.103Z,25.24
2022-09-12T16:46:25.223Z,25.19
2022-09-12T16:48:55.044Z,25.06
2022-09-12T16:51:26.065Z,24.91
2022-09-12T16:53:56.605Z,24.87
2022-09-12T16:56:25.493Z,24.80
2022-09-12T16:58:53.771Z,24.70
2022-09-12T17:01:24.317Z,24.46
2022-09-12T17:03:54.640Z,24.51
2022-09-12T17:06:22.680Z,24.44
2022-09-12T17:08:53.295Z,24.49
2022-09-12T17:11:25.271Z,24.32
2022-09-12T17:14:11.651Z,24.00
2022-09-12T17:16:41.937Z,23.63
2022-09-12T17:19:14.660Z,23.38
2022-09-12T17:21:42.812Z,23.16
2022-09-12T17:24:10.906Z,22.97
2022-09-12T17:26:40.361Z,22.80
2022-09-12T17:29:08.353Z,22.64
2022-09-12T17:31:36.531Z,22.37
2022-09-12T17:34:05.007Z,22.09
2022-09-12T17:36:33.237Z,21.99
2022-09-12T17:39:03.626Z,21.65
2022-09-12T17:41:33.017Z,21.47
2022-09-12T17:44:03.654Z,21.33
2022-09-12T17:46:35.036Z,21.05
2022-09-12T17:49:04.740Z,20.73
2022-09-12T17:51:32.785Z,20.62
2022-09-12T17:54:02.671Z,20.47
2022-09-12T17:56:32.343Z,20.22
2022-09-12T17:59:02.797Z,20.18
2022-09-12T18:01:48.822Z,20.06
2022-09-12T18:04:17.433Z,19.90
2022-09-12T18:06:48.224Z,19.84
2022-09-12T18:09:18.459Z,19.64
2022-09-12T18:11:46.959Z,19.59
2022-09-12T18:14:17.555Z,19.59
2022-09-12T18:16:46.004Z,19.69
2022-09-12T18:19:14.375Z,19.62
2022-09-12T18:21:42.636Z,19.44
2022-09-12T18:24:11.337Z,19.26
2022-09-12T18:26:39.396Z,19.24
2022-09-12T18:29:08.314Z,19.21
2022-09-12T18:31:37.906Z,19.01
2022-09-12T18:34:06.326Z,18.99
2022-09-12T18:36:34.325Z,18.97
2022-09-12T18:39:02.292Z,18.86
2022-09-12T18:41:30.322Z,18.72
2022-09-12T18:43:59.801Z,18.59
2022-09-12T18:46:29.072Z,18.51
2022-09-12T18:48:59.656Z,18.55
2022-09-12T18:51:31.678Z,18.43
2022-09-12T18:54:01.524Z,18.43
2022-09-12T18:56:33.046Z,18.34
2022-09-12T18:59:02.792Z,18.26
2022-09-12T19:01:32.741Z,18.23
2022-09-12T19:04:04.766Z,18.09
2022-09-12T19:06:34.985Z,17.98
2022-09-12T19:09:07.591Z,18.01
2022-09-12T19:11:37.137Z,18.05
2022-09-12T19:14:05.690Z,18.07
2022-09-12T19:16:33.752Z,17.93
2022-09-12T19:19:03.726Z,17.90
2022-09-12T19:21:33.123Z,17.90
2022-09-12T19:24:02.781Z,17.88
2022-09-12T19:26:31.056Z,17.80
2022-09-12T19:28:59.441Z,17.79
2022-09-12T19:31:27.691Z,17.78
2022-09-12T19:34:00.949Z,17.71
2022-09-12T19:36:47.296Z,17.65
2022-09-12T19:39:16.573Z,17.67
2022-09-12T19:41:44.719Z,17.49
2022-09-12T19:44:12.924Z,17.48
2022-09-12T19:46:41.854Z,17.53
2022-09-12T19:49:11.592Z,17.54
2022-09-12T19:51:41.338Z,17.49
2022-09-12T19:54:09.662Z,17.42
2022-09-12T19:56:37.694Z,17.31
2022-09-12T19:59:05.635Z,17.37
2022-09-12T20:01:34.853Z,17.32
2022-09-12T20:04:03.536Z,17.31
2022-09-12T20:06:31.578Z,17.24
2022-09-12T20:09:00.936Z,17.15
2022-09-12T20:11:29.270Z,17.08
2022-09-12T20:13:57.220Z,17.12
2022-09-12T20:16:29.386Z,17.19
2022-09-12T20:18:59.239Z,17.21
2022-09-12T20:21:32.140Z,17.23
2022-09-12T20:24:06.889Z,17.24
2022-09-12T20:26:35.521Z,17.20
2022-09-12T20:29:04.836Z,17.21
2022-09-12T20:31:33.597Z,17.26
2022-09-12T20:34:01.740Z,17.24
2022-09-12T20:36:29.978Z,17.23
2022-09-12T20:39:00.184Z,17.09
2022-09-12T20:41:32.060Z,16.99
2022-09-12T20:44:00.288Z,16.85
2022-09-12T20:46:29.639Z,16.90
2022-09-12T20:48:58.613Z,16.89
2022-09-12T20:51:29.777Z,16.81
2022-09-12T20:53:58.872Z,16.76
2022-09-12T20:56:28.554Z,16.69
2022-09-12T20:58:58.016Z,16.72
2022-09-12T21:01:26.968Z,16.84
2022-09-12T21:03:55.249Z,16.72
2022-09-12T21:06:23.533Z,16.69
2022-09-12T21:08:51.882Z,16.76
2022-09-12T21:11:20.683Z,16.62
2022-09-12T21:13:48.712Z,16.69
2022-09-12T21:16:19.814Z,16.62
2022-09-12T21:18:48.655Z,16.66
2022-09-12T21:21:17.175Z,16.51
2022-09-12T21:23:45.231Z,16.48
2022-09-12T21:26:13.299Z,16.55
2022-09-12T21:28:41.370Z,16.59
2022-09-12T21:31:09.812Z,16.50
2022-09-12T21:33:39.300Z,16.31
2022-09-12T21:36:08.424Z,16.31
2022-09-12T21:38:36.636Z,16.23
2022-09-12T21:41:09.676Z,16.18
2022-09-12T21:43:38.657Z,16.07
2022-09-12T21:46:08.461Z,15.99
2022-09-12T21:48:36.965Z,15.81
2022-09-12T21:51:06.964Z,15.80
2022-09-12T21:53:35.001Z,15.61
2022-09-12T21:56:03.781Z,15.77
2022-09-12T21:58:31.834Z,15.81
2022-09-12T22:01:00.454Z,15.77
2022-09-12T22:03:29.143Z,15.60
2022-09-12T22:06:01.616Z,15.53
2022-09-12T22:08:33.284Z,15.40
2022-09-12T22:11:02.730Z,15.32
2022-09-12T22:13:32.265Z,15.50
2022-09-12T22:16:00.571Z,15.61
2022-09-12T22:18:28.683Z,15.76
2022-09-12T22:21:01.251Z,15.63
2022-09-12T22:23:48.279Z,15.59
2022-09-12T22:26:16.521Z,15.58
2022-09-12T22:28:45.145Z,15.57
2022-09-12T22:31:14.185Z,15.59
2022-09-12T22:33:42.413Z,15.49
2022-09-12T22:36:11.549Z,15.50
2022-09-12T22:38:41.073Z,15.43
2022-09-12T22:41:11.333Z,15.23
2022-09-12T22:43:39.539Z,15.16
2022-09-12T22:46:08.631Z,15.31
2022-09-12T22:48:37.450Z,15.09
2022-09-12T22:51:06.062Z,14.90
2022-09-12T22:53:34.157Z,14.87
2022-09-12T22:56:05.160Z,14.77
2022-09-12T22:58:33.673Z,14.72
2022-09-12T23:01:01.732Z,14.64
2022-09-12T23:03:29.874Z,14.60
2022-09-12T23:05:57.901Z,14.59
2022-09-12T23:08:29.542Z,14.51
2022-09-12T23:11:06.507Z,14.59
2022-09-12T23:13:34.596Z,14.54
2022-09-12T23:16:04.408Z,14.49
2022-09-12T23:18:34.709Z,14.36
2022-09-12T23:21:05.276Z,14.53
2022-09-12T23:23:33.730Z,14.58
2022-09-12T23:26:45.617Z,14.52
2022-09-12T23:29:13.632Z,14.50
2022-09-12T23:31:41.744Z,14.44
2022-09-12T23:34:11.171Z,14.51
2022-09-12T23:36:39.299Z,14.50
2022-09-12T23:39:07.309Z,14.51
2022-09-12T23:41:35.277Z,14.57
2022-09-12T23:44:04.764Z,14.58
2022-09-12T23:46:32.769Z,14.66
2022-09-12T23:49:00.784Z,14.52
2022-09-12T23:51:28.748Z,14.80
2022-09-12T23:53:56.732Z,14.69
2022-09-12T23:56:24.684Z,14.64
2022-09-12T23:58:52.760Z,14.78
